Time;durP1;ratioP1;P1;durP2;ratioP2;P2;SDS_P1;SDS_P2;PMS_P1;PMS_P2;Temp;Humidity;BMP_temperature;BMP_pressure;BME280_temperature;BME280_humidity;BME280_pressure;Samples;Min_cycle;Max_cycle;Signal;HPM_P1;HPM_P2
2021/11/11 00:01:49;;;;;;;33.58;15.50;;;;;;;4.98;100.00;103027.22;4938902;29;20055;-68
2021/11/11 00:04:35;;;;;;;28.55;14.65;;;;;;;4.86;100.00;103029.28;4938645;29;20063;-67
2021/11/11 00:07:20;;;;;;;26.02;13.82;;;;;;;4.68;100.00;103022.44;4924677;29;20032;-68
2021/11/11 00:10:09;;;;;;;29.92;13.18;;;;;;;4.64;100.00;103020.53;4940147;29;20498;-69
2021/11/11 00:12:56;;;;;;;27.52;14.13;;;;;;;5.02;100.00;103020.44;4938860;29;20459;-67
2021/11/11 00:15:41;;;;;;;24.85;13.70;;;;;;;5.07;100.00;103014.59;4938656;29;20039;-68
2021/11/11 00:18:27;;;;;;;20.92;13.15;;;;;;;5.28;100.00;103023.25;4939938;29;20102;-68
2021/11/11 00:21:13;;;;;;;25.08;13.43;;;;;;;4.98;100.00;103015.91;4939824;29;20095;-68
2021/11/11 00:23:59;;;;;;;22.15;12.00;;;;;;;4.58;100.00;103015.06;4938262;29;20110;-67
2021/11/11 00:26:45;;;;;;;22.50;12.57;;;;;;;4.70;100.00;103008.69;4939387;29;20114;-68
2021/11/11 00:29:30;;;;;;;20.08;12.25;;;;;;;5.00;100.00;103009.09;4939302;29;20031;-68
2021/11/11 00:32:16;;;;;;;25.85;14.30;;;;;;;4.90;100.00;103002.63;4926050;29;20042;-67
2021/11/11 00:35:03;;;;;;;28.80;14.00;;;;;;;4.86;100.00;103005.03;4924677;29;20039;-68
2021/11/11 00:37:51;;;;;;;23.38;13.70;;;;;;;5.07;100.00;103006.81;4937196;29;20027;-67
2021/11/11 00:40:37;;;;;;;22.02;13.90;;;;;;;4.78;100.00;103006.41;4938193;29;20359;-68
2021/11/11 00:43:23;;;;;;;23.58;13.15;;;;;;;4.33;100.00;103001.84;4938138;29;20423;-67
2021/11/11 00:46:10;;;;;;;23.80;13.30;;;;;;;4.88;100.00;102998.19;4938770;29;20047;-69
2021/11/11 00:48:56;;;;;;;19.55;12.18;;;;;;;4.87;100.00;102989.50;4937726;29;20111;-68
2021/11/11 00:51:43;;;;;;;21.52;12.23;;;;;;;4.78;100.00;102986.53;4926114;29;20028;-68
2021/11/11 00:54:28;;;;;;;21.58;13.32;;;;;;;4.81;100.00;102977.97;4937859;29;20119;-68
2021/11/11 00:57:14;;;;;;;21.65;13.80;;;;;;;4.90;100.00;102974.06;4938850;29;20072;-68
2021/11/11 01:00:00;;;;;;;22.15;12.70;;;;;;;4.69;100.00;102965.38;4939272;29;20485;-67
2021/11/11 01:02:47;;;;;;;27.25;14.52;;;;;;;4.66;100.00;102965.25;4925631;29;20039;-68
2021/11/11 01:05:34;;;;;;;23.40;13.60;;;;;;;4.65;100.00;102963.47;4937747;29;20027;-68
2021/11/11 01:08:21;;;;;;;23.15;13.85;;;;;;;4.56;100.00;102954.41;4910902;29;20027;-69
2021/11/11 01:11:07;;;;;;;27.02;14.50;;;;;;;4.89;100.00;102948.91;4937718;29;20403;-68
2021/11/11 01:13:54;;;;;;;24.85;14.10;;;;;;;5.02;100.00;102938.19;4938640;29;20434;-68
2021/11/11 01:16:39;;;;;;;22.83;13.50;;;;;;;4.50;100.00;102931.69;4938825;29;20094;-68
2021/11/11 01:19:26;;;;;;;25.23;13.27;;;;;;;4.79;100.00;102927.72;4939008;29;20447;-69
2021/11/11 01:22:12;;;;;;;24.15;13.85;;;;;;;4.47;100.00;102933.25;4938090;29;20043;-68
2021/11/11 01:24:58;;;;;;;25.77;13.30;;;;;;;4.58;100.00;102927.69;4937870;29;20123;-69
2021/11/11 01:27:45;;;;;;;21.77;13.68;;;;;;;4.81;100.00;102924.34;4923981;29;20102;-67
2021/11/11 01:30:30;;;;;;;21.67;13.23;;;;;;;5.05;100.00;102925.34;4937252;29;20028;-67
2021/11/11 01:33:16;;;;;;;25.45;13.82;;;;;;;4.85;100.00;102918.44;4924957;29;20031;-69
2021/11/11 01:36:03;;;;;;;19.08;12.45;;;;;;;4.72;100.00;102915.28;4923299;29;20035;-68
2021/11/11 01:38:49;;;;;;;25.10;12.32;;;;;;;4.81;100.00;102906.16;4937024;29;20422;-69
2021/11/11 01:41:35;;;;;;;20.40;11.95;;;;;;;4.73;100.00;102904.06;4923217;29;20020;-68
2021/11/11 01:44:21;;;;;;;19.63;12.02;;;;;;;4.97;100.00;102903.34;4937439;29;20035;-68
2021/11/11 01:47:07;;;;;;;20.63;12.95;;;;;;;5.08;100.00;102904.69;4936863;29;20102;-67
2021/11/11 01:49:53;;;;;;;21.95;11.68;;;;;;;4.81;100.00;102910.47;4938054;29;20035;-68
2021/11/11 01:52:40;;;;;;;20.23;11.57;;;;;;;4.73;100.00;102909.25;4937264;29;20031;-68
2021/11/11 01:55:27;;;;;;;24.63;12.93;;;;;;;4.62;100.00;102902.72;4923973;29;20039;-68
2021/11/11 01:58:13;;;;;;;23.25;12.15;;;;;;;4.50;100.00;102900.53;4936717;29;20439;-68
2021/11/11 02:01:00;;;;;;;25.63;12.80;;;;;;;4.64;100.00;102898.50;4937597;29;20343;-68
2021/11/11 02:03:46;;;;;;;22.20;11.82;;;;;;;4.88;100.00;102891.72;4936811;29;20126;-68
2021/11/11 02:06:32;;;;;;;23.42;12.55;;;;;;;4.91;100.00;102891.84;4937214;29;20084;-68
2021/11/11 02:09:18;;;;;;;26.98;11.95;;;;;;;4.73;100.00;102897.19;4936726;29;20080;-68
2021/11/11 02:12:05;;;;;;;24.05;11.82;;;;;;;4.55;100.00;102908.53;4936638;29;20032;-68
2021/11/11 02:14:50;;;;;;;21.95;12.68;;;;;;;4.73;100.00;102899.78;4937491;29;20032;-67
2021/11/11 02:17:36;;;;;;;21.63;12.38;;;;;;;4.76;100.00;102893.81;4936188;29;20036;-66
2021/11/11 02:20:31;;;;;;;25.00;13.13;;;;;;;4.98;100.00;102886.94;4938376;29;20019;-67
2021/11/11 02:23:19;;;;;;;23.20;12.57;;;;;;;4.89;100.00;102889.19;4936949;29;20031;-67
2021/11/11 02:26:05;;;;;;;25.88;12.60;;;;;;;4.61;100.00;102891.47;4935948;29;20042;-68
2021/11/11 02:28:51;;;;;;;30.45;12.18;;;;;;;4.74;100.00;102898.03;4923854;29;20062;-67
2021/11/11 02:31:37;;;;;;;25.63;12.40;;;;;;;4.76;100.00;102888.63;4924120;29;20339;-67
2021/11/11 02:34:23;;;;;;;22.48;11.90;;;;;;;5.12;100.00;102888.38;4937309;29;20043;-69
2021/11/11 02:37:09;;;;;;;22.15;11.45;;;;;;;5.02;100.00;102899.22;4935985;29;20059;-68
2021/11/11 02:39:56;;;;;;;20.63;11.75;;;;;;;4.78;100.00;102895.66;4936139;29;20038;-69
2021/11/11 02:42:44;;;;;;;21.35;11.63;;;;;;;4.78;100.00;102899.94;4935778;29;20504;-68
2021/11/11 02:45:36;;;;;;;20.50;11.52;;;;;;;4.87;100.00;102898.59;4936238;29;20066;-68
2021/11/11 02:48:23;;;;;;;24.27;12.30;;;;;;;5.05;100.00;102894.16;4936227;29;20036;-68
2021/11/11 02:51:09;;;;;;;18.00;11.73;;;;;;;4.65;100.00;102893.38;4923304;29;20050;-68
2021/11/11 02:53:55;;;;;;;19.08;12.02;;;;;;;4.78;100.00;102893.03;4936474;29;20438;-68
2021/11/11 02:56:40;;;;;;;23.13;12.32;;;;;;;4.81;100.00;102894.88;4935735;29;20055;-67
2021/11/11 02:59:27;;;;;;;24.33;12.75;;;;;;;4.81;100.00;102893.19;4937380;29;20043;-67
2021/11/11 03:02:23;;;;;;;21.83;13.77;;;;;;;4.79;100.00;102889.63;4940375;29;20039;-68
2021/11/11 03:05:11;;;;;;;19.55;13.18;;;;;;;4.82;100.00;102886.25;4926291;29;20055;-68
2021/11/11 03:07:57;;;;;;;20.92;13.70;;;;;;;4.87;100.00;102890.81;4926146;29;20031;-68
2021/11/11 03:10:43;;;;;;;22.63;13.55;;;;;;;4.72;100.00;102897.09;4941191;29;20030;-67
2021/11/11 03:13:29;;;;;;;22.83;13.80;;;;;;;4.40;100.00;102890.59;4940077;29;20036;-67
2021/11/11 03:16:15;;;;;;;21.95;13.20;;;;;;;4.43;100.00;102888.09;4940711;29;20040;-67
2021/11/11 03:19:01;;;;;;;20.48;12.48;;;;;;;4.50;100.00;102884.06;4939937;29;20046;-67
2021/11/11 03:21:47;;;;;;;23.23;13.60;;;;;;;4.51;100.00;102884.13;4940750;29;20034;-68
2021/11/11 03:24:37;;;;;;;26.23;14.18;;;;;;;4.63;100.00;102887.22;4939370;29;20039;-67
2021/11/11 03:27:23;;;;;;;20.73;12.82;;;;;;;4.31;100.00;102882.41;4925742;29;20121;-67
2021/11/11 03:30:15;;;;;;;22.30;13.30;;;;;;;4.41;100.00;102881.09;4940645;29;20506;-67
2021/11/11 03:33:01;;;;;;;23.02;13.25;;;;;;;4.23;100.00;102875.13;4926634;29;20032;-68
2021/11/11 03:35:47;;;;;;;25.25;14.30;;;;;;;4.19;100.00;102873.22;4939732;29;20039;-67
2021/11/11 03:38:33;;;;;;;24.05;13.32;;;;;;;4.31;100.00;102879.81;4939119;29;20369;-68
2021/11/11 03:41:19;;;;;;;25.50;14.55;;;;;;;4.29;100.00;102877.97;4940547;29;20023;-67
2021/11/11 03:44:04;;;;;;;26.42;16.30;;;;;;;4.08;100.00;102874.47;4940796;29;20454;-67
2021/11/11 03:46:54;;;;;;;26.33;17.55;;;;;;;4.33;100.00;102874.69;4926235;29;20115;-67
2021/11/11 03:49:40;;;;;;;33.92;19.00;;;;;;;4.00;100.00;102863.78;4926119;29;20059;-67
2021/11/11 03:52:26;;;;;;;33.97;18.95;;;;;;;4.01;100.00;102867.25;4940590;29;20036;-67
2021/11/11 03:55:13;;;;;;;28.13;16.80;;;;;;;3.72;100.00;102865.09;4939288;29;20050;-67
2021/11/11 03:57:59;;;;;;;31.80;16.42;;;;;;;4.08;100.00;102862.41;4938579;29;20060;-68
2021/11/11 04:00:46;;;;;;;30.75;16.85;;;;;;;4.02;100.00;102861.25;4940487;29;20024;-69
2021/11/11 04:03:32;;;;;;;32.63;17.15;;;;;;;3.92;100.00;102862.56;4938291;29;20027;-68
2021/11/11 04:06:18;;;;;;;30.27;17.95;;;;;;;4.16;100.00;102855.84;4940431;29;20087;-68
2021/11/11 04:09:05;;;;;;;32.00;17.08;;;;;;;4.21;100.00;102858.59;4938614;29;20059;-68
2021/11/11 04:11:51;;;;;;;28.25;16.13;;;;;;;3.90;100.00;102847.78;4938765;29;20040;-68
2021/11/11 04:14:36;;;;;;;27.23;16.60;;;;;;;3.85;100.00;102854.44;4939774;29;20094;-68
2021/11/11 04:17:22;;;;;;;31.77;16.63;;;;;;;4.03;100.00;102856.09;4924870;29;20091;-68
2021/11/11 04:20:09;;;;;;;26.95;17.23;;;;;;;3.97;100.00;102847.19;4925190;29;20023;-68
2021/11/11 04:22:55;;;;;;;28.42;16.92;;;;;;;4.19;100.00;102844.69;4938634;29;20058;-68
2021/11/11 04:28:38;;;;;;;27.48;15.43;;;;;;;4.19;100.00;102847.28;4938799;29;20031;-68
2021/11/11 04:31:30;;;;;;;31.77;16.10;;;;;;;3.78;100.00;102852.41;4938043;29;20035;-67
2021/11/11 04:34:17;;;;;;;29.00;16.30;;;;;;;3.87;100.00;102845.91;4938645;29;20032;-68
2021/11/11 04:40:18;;;;;;;31.40;16.55;;;;;;;3.98;100.00;102834.28;4939050;29;20020;-67
2021/11/11 05:03:54;;;;;;;28.77;15.02;;;;;;;4.11;100.00;102838.31;4938339;29;20031;-68
2021/11/11 05:06:40;;;;;;;24.15;14.43;;;;;;;4.06;100.00;102843.28;4923550;29;20027;-68
2021/11/11 05:09:26;;;;;;;22.13;12.82;;;;;;;4.45;100.00;102833.66;4938683;29;20071;-68
2021/11/11 05:12:13;;;;;;;24.75;13.93;;;;;;;4.06;100.00;102845.00;4937842;29;20520;-68
2021/11/11 05:14:59;;;;;;;28.67;14.82;;;;;;;4.37;100.00;102832.47;4938505;29;20036;-68
2021/11/11 05:17:45;;;;;;;28.02;14.35;;;;;;;4.08;100.00;102846.84;4938493;29;20114;-68
2021/11/11 05:20:31;;;;;;;28.90;14.27;;;;;;;4.17;100.00;102847.22;4938967;29;20035;-68
2021/11/11 05:23:17;;;;;;;25.60;14.85;;;;;;;4.25;100.00;102844.94;4936574;29;20058;-68
2021/11/11 05:26:04;;;;;;;24.23;13.90;;;;;;;4.35;100.00;102842.78;4937536;29;20442;-68
2021/11/11 05:28:51;;;;;;;24.70;14.32;;;;;;;4.21;100.00;102843.94;4938539;29;20043;-68
2021/11/11 05:31:37;;;;;;;27.92;14.60;;;;;;;4.38;100.00;102840.31;4937748;29;20039;-67
2021/11/11 05:34:23;;;;;;;25.45;15.10;;;;;;;4.35;100.00;102844.50;4937246;29;20035;-68
2021/11/11 05:37:11;;;;;;;33.75;15.60;;;;;;;4.35;100.00;102844.50;4938015;29;20031;-68
2021/11/11 05:39:57;;;;;;;33.78;16.58;;;;;;;4.63;100.00;102850.00;4938459;29;20111;-68
2021/11/11 05:42:43;;;;;;;27.85;17.95;;;;;;;4.67;100.00;102850.19;4938836;29;20035;-68
2021/11/11 05:45:29;;;;;;;26.83;16.02;;;;;;;4.57;100.00;102840.25;4937889;29;20043;-68
2021/11/11 05:48:15;;;;;;;28.10;16.25;;;;;;;4.42;100.00;102847.41;4922803;29;20102;-67
2021/11/11 05:51:01;;;;;;;32.60;15.98;;;;;;;4.38;100.00;102845.50;4937954;29;20320;-68
2021/11/11 05:53:46;;;;;;;32.28;15.82;;;;;;;4.47;100.00;102843.28;4937841;29;20028;-67
2021/11/11 05:56:32;;;;;;;33.78;18.77;;;;;;;4.78;100.00;102840.22;4937825;29;20056;-68
2021/11/11 05:59:18;;;;;;;38.20;19.25;;;;;;;4.70;100.00;102841.63;4937921;29;20032;-67
2021/11/11 06:02:04;;;;;;;34.33;18.88;;;;;;;4.76;100.00;102841.88;4923141;29;20110;-70
2021/11/11 06:04:50;;;;;;;37.30;19.52;;;;;;;4.85;100.00;102837.94;4936313;29;20070;-69
2021/11/11 06:07:36;;;;;;;34.13;19.25;;;;;;;4.95;100.00;102850.44;4937494;29;20419;-67
2021/11/11 06:10:22;;;;;;;35.15;18.20;;;;;;;4.94;100.00;102843.47;4936976;29;20127;-67
2021/11/11 06:13:08;;;;;;;33.50;17.98;;;;;;;5.03;100.00;102850.75;4936991;29;20031;-68
2021/11/11 06:15:54;;;;;;;30.15;17.10;;;;;;;5.03;100.00;102846.44;4936462;29;20129;-69
2021/11/11 06:18:41;;;;;;;29.50;17.27;;;;;;;4.99;100.00;102839.34;4937360;29;20454;-68
2021/11/11 06:21:27;;;;;;;34.03;17.85;;;;;;;4.93;100.00;102844.31;4935806;29;20102;-67
2021/11/11 06:24:15;;;;;;;32.78;18.05;;;;;;;5.16;100.00;102846.06;4937358;29;20466;-68
2021/11/11 06:27:01;;;;;;;29.13;16.27;;;;;;;5.15;100.00;102844.31;4936392;29;20024;-69
2021/11/11 06:29:47;;;;;;;34.20;17.80;;;;;;;5.47;100.00;102838.59;4937064;29;20157;-68
2021/11/11 06:32:34;;;;;;;27.95;16.15;;;;;;;5.57;100.00;102844.13;4937506;29;20347;-69
2021/11/11 06:35:20;;;;;;;32.58;16.95;;;;;;;5.81;100.00;102835.53;4935232;29;20028;-67
2021/11/11 06:38:07;;;;;;;35.08;17.27;;;;;;;5.87;100.00;102834.88;4936367;29;20027;-68
2021/11/11 06:40:54;;;;;;;34.10;17.88;;;;;;;6.03;100.00;102831.97;4936263;29;20031;-68
2021/11/11 06:43:41;;;;;;;27.75;16.63;;;;;;;6.20;100.00;102831.72;4936504;29;20481;-68
2021/11/11 06:46:26;;;;;;;26.23;14.25;;;;;;;5.90;100.00;102827.19;4935695;29;20040;-68
2021/11/11 06:49:13;;;;;;;19.80;13.00;;;;;;;6.26;100.00;102831.03;4922384;29;20071;-68
2021/11/11 06:52:00;;;;;;;22.30;13.95;;;;;;;6.70;100.00;102822.94;4935390;29;20335;-67
2021/11/11 06:54:46;;;;;;;23.83;13.27;;;;;;;6.72;100.00;102819.56;4937454;29;20043;-68
2021/11/11 06:57:32;;;;;;;26.23;12.45;;;;;;;6.94;100.00;102821.09;4936805;29;20051;-68
2021/11/11 07:00:18;;;;;;;32.78;12.75;;;;;;;6.76;100.00;102817.94;4936038;29;20474;-68
2021/11/11 07:03:04;;;;;;;24.48;13.70;;;;;;;7.03;100.00;102809.22;4935910;29;20157;-68
2021/11/11 07:05:50;;;;;;;19.95;12.18;;;;;;;7.04;100.00;102810.13;4935735;29;20502;-68
2021/11/11 07:08:35;;;;;;;22.48;11.20;;;;;;;6.98;100.00;102815.13;4935218;29;20058;-68
2021/11/11 07:11:21;;;;;;;21.27;11.93;;;;;;;7.24;100.00;102812.47;4936624;29;20028;-68
2021/11/11 07:14:07;;;;;;;27.20;12.23;;;;;;;7.53;100.00;102802.88;4921851;29;20106;-68
2021/11/11 07:16:53;;;;;;;19.63;11.30;;;;;;;7.66;100.00;102802.38;4935336;29;20027;-66
2021/11/11 07:19:39;;;;;;;17.85;10.93;;;;;;;7.91;100.00;102800.47;4935490;29;20358;-68
2021/11/11 07:22:24;;;;;;;19.02;10.65;;;;;;;8.14;100.00;102788.00;4936263;29;20032;-67
2021/11/11 07:25:12;;;;;;;18.55;11.13;;;;;;;8.76;100.00;102790.44;4936928;29;20036;-68
2021/11/11 07:27:58;;;;;;;17.45;10.65;;;;;;;8.78;100.00;102792.25;4922775;29;20028;-68
2021/11/11 07:30:45;;;;;;;15.88;9.48;;;;;;;8.82;100.00;102791.47;4937558;29;20028;-68
2021/11/11 07:33:31;;;;;;;17.70;9.88;;;;;;;9.19;100.00;102787.91;4936134;29;20031;-68
2021/11/11 07:36:17;;;;;;;16.50;10.27;;;;;;;8.95;100.00;102782.16;4922950;29;20032;-68
2021/11/11 07:39:04;;;;;;;26.73;18.17;;;;;;;9.63;100.00;102780.09;4936316;29;20055;-69
2021/11/11 07:41:50;;;;;;;14.02;9.70;;;;;;;9.51;100.00;102785.09;4936497;29;20118;-69
2021/11/11 07:44:36;;;;;;;17.20;8.70;;;;;;;9.96;100.00;102778.09;4922046;29;20032;-68
2021/11/11 07:47:27;;;;;;;22.95;14.18;;;;;;;9.89;100.00;102775.38;4937984;29;20031;-68
2021/11/11 07:50:13;;;;;;;29.58;19.35;;;;;;;10.85;100.00;102766.44;4939541;29;20028;-67
2021/11/11 07:53:00;;;;;;;21.70;14.32;;;;;;;10.40;100.00;102764.91;4925560;29;20414;-68
2021/11/11 07:55:46;;;;;;;30.65;16.20;;;;;;;11.16;100.00;102771.25;4925393;29;20036;-67
2021/11/11 07:58:32;;;;;;;28.10;16.60;;;;;;;10.35;100.00;102764.81;4939672;29;20122;-68
2021/11/11 08:01:18;;;;;;;27.88;16.40;;;;;;;10.37;100.00;102760.47;4940786;29;20042;-68
2021/11/11 08:04:04;;;;;;;28.80;16.90;;;;;;;10.25;100.00;102764.66;4940548;29;20518;-68
2021/11/11 08:06:50;;;;;;;25.92;15.15;;;;;;;10.58;100.00;102755.59;4939928;29;20035;-68
2021/11/11 08:09:36;;;;;;;24.00;14.88;;;;;;;11.18;100.00;102766.91;4940072;29;20050;-68
2021/11/11 08:12:22;;;;;;;23.30;14.07;;;;;;;11.08;100.00;102753.63;4938969;29;20098;-68
2021/11/11 08:15:09;;;;;;;20.90;13.63;;;;;;;11.21;100.00;102764.31;4938221;29;20158;-68
2021/11/11 08:17:56;;;;;;;20.70;14.20;;;;;;;10.61;100.00;102760.00;4938703;29;20039;-68
2021/11/11 08:20:42;;;;;;;18.95;13.05;;;;;;;10.49;100.00;102754.56;4939200;29;20106;-67
2021/11/11 08:23:28;;;;;;;21.55;12.98;;;;;;;10.85;100.00;102762.97;4939719;29;20031;-69
2021/11/11 08:26:14;;;;;;;22.10;12.95;;;;;;;10.78;100.00;102753.25;4938295;29;20063;-68
2021/11/11 08:29:01;;;;;;;21.13;13.02;;;;;;;10.39;100.00;102744.78;4940235;29;20079;-68
2021/11/11 08:31:47;;;;;;;23.50;13.13;;;;;;;10.77;100.00;102741.88;4939363;29;20036;-69
2021/11/11 08:34:33;;;;;;;19.00;13.02;;;;;;;10.52;100.00;102739.75;4923969;29;20043;-69
2021/11/11 08:37:19;;;;;;;18.27;12.75;;;;;;;11.07;100.00;102733.53;4937632;29;20123;-68
2021/11/11 08:40:05;;;;;;;20.77;13.02;;;;;;;11.56;100.00;102731.47;4939007;29;20042;-69
2021/11/11 08:42:55;;;;;;;21.85;12.57;;;;;;;11.58;100.00;102735.00;4939663;29;20070;-68
2021/11/11 08:45:41;;;;;;;28.90;16.98;;;;;;;11.35;100.00;102735.63;4938415;29;20090;-68
2021/11/11 08:48:26;;;;;;;26.13;12.88;;;;;;;11.34;100.00;102732.13;4924361;29;20134;-68
2021/11/11 08:51:12;;;;;;;29.48;13.32;;;;;;;10.93;100.00;102725.47;4939133;29;20038;-68
2021/11/11 08:53:58;;;;;;;21.92;13.27;;;;;;;11.60;100.00;102714.94;4938119;29;20031;-69
2021/11/11 08:56:50;;;;;;;24.15;13.40;;;;;;;11.32;100.00;102720.72;4938309;29;20058;-68
2021/11/11 08:59:37;;;;;;;20.83;12.48;;;;;;;11.13;100.00;102712.63;4925227;29;20032;-70
2021/11/11 09:02:23;;;;;;;22.35;12.68;;;;;;;11.29;100.00;102715.44;4938363;29;20354;-69
2021/11/11 09:05:09;;;;;;;25.63;13.35;;;;;;;11.53;100.00;102702.56;4925218;29;20028;-69
2021/11/11 09:07:55;;;;;;;26.73;13.35;;;;;;;11.48;100.00;102699.03;4924697;29;20488;-69
2021/11/11 09:10:44;;;;;;;22.63;13.10;;;;;;;10.89;100.00;102705.31;4941106;29;20032;-69
2021/11/11 09:13:32;;;;;;;20.38;12.85;;;;;;;10.69;100.00;102698.94;4914881;29;20035;-69
2021/11/11 09:16:18;;;;;;;20.02;12.30;;;;;;;10.77;100.00;102696.44;4939048;29;20053;-69
2021/11/11 09:19:04;;;;;;;21.90;11.77;;;;;;;10.79;100.00;102697.31;4937319;29;20031;-69
2021/11/11 09:21:50;;;;;;;21.25;12.10;;;;;;;10.98;100.00;102689.72;4940279;29;20062;-69
2021/11/11 09:24:38;;;;;;;58.35;37.55;;;;;;;11.53;100.00;102678.94;4938911;29;20023;-69
2021/11/11 09:27:24;;;;;;;27.27;14.45;;;;;;;11.23;100.00;102678.63;4938310;29;20024;-69
2021/11/11 09:30:18;;;;;;;20.58;12.10;;;;;;;11.12;100.00;102682.88;4937887;29;20042;-69
2021/11/11 09:33:06;;;;;;;21.77;12.20;;;;;;;10.91;100.00;102680.00;4940486;29;20027;-69
2021/11/11 09:35:53;;;;;;;20.52;12.32;;;;;;;11.40;100.00;102669.19;4925259;29;20099;-69
2021/11/11 09:38:39;;;;;;;23.33;11.95;;;;;;;11.39;100.00;102662.19;4937403;29;20062;-69
2021/11/11 09:41:25;;;;;;;27.95;12.13;;;;;;;11.07;100.00;102660.97;4938927;29;20122;-68
2021/11/11 09:44:11;;;;;;;26.15;12.48;;;;;;;11.28;100.00;102653.31;4939316;29;20036;-70
2021/11/11 09:46:57;;;;;;;24.00;12.00;;;;;;;11.53;100.00;102655.31;4938665;29;20042;-70
2021/11/11 09:49:46;;;;;;;24.45;12.57;;;;;;;11.57;100.00;102648.38;4939718;29;20358;-69
2021/11/11 09:52:33;;;;;;;23.95;11.60;;;;;;;12.15;100.00;102642.72;4937170;29;20127;-68
2021/11/11 09:58:34;;;;;;;29.40;11.98;;;;;;;11.94;100.00;102632.94;4938307;29;20055;-69
2021/11/11 10:01:23;;;;;;;23.63;11.90;;;;;;;12.15;100.00;102626.97;4925190;29;20038;-69
2021/11/11 10:04:09;;;;;;;25.40;12.25;;;;;;;12.26;100.00;102633.16;4925055;29;20039;-71
2021/11/11 10:06:56;;;;;;;22.70;11.68;;;;;;;12.21;100.00;102613.84;4938203;29;20057;-69
2021/11/11 10:09:46;;;;;;;30.23;12.43;;;;;;;12.44;100.00;102618.38;4938744;29;20510;-70
2021/11/11 10:12:33;;;;;;;31.65;11.80;;;;;;;12.67;100.00;102605.34;4938603;29;20028;-69
2021/11/11 10:15:19;;;;;;;26.90;14.57;;;;;;;12.64;100.00;102600.06;4936817;29;20042;-69
2021/11/11 10:18:05;;;;;;;37.15;15.77;;;;;;;12.62;100.00;102597.41;4922865;29;20071;-70
2021/11/11 10:20:54;;;;;;;31.52;13.85;;;;;;;12.89;100.00;102586.09;4922532;29;20024;-69
2021/11/11 10:23:40;;;;;;;30.05;13.57;;;;;;;13.25;100.00;102589.72;4922366;29;20058;-70
2021/11/11 10:26:39;;;;;;;26.13;12.02;;;;;;;13.06;100.00;102585.31;4937842;29;20035;-68
2021/11/11 10:29:43;;;;;;;25.30;12.77;;;;;;;12.68;100.00;102588.66;4923917;29;20055;-68
2021/11/11 10:32:37;;;;;;;28.33;12.45;;;;;;;12.99;100.00;102574.78;4926135;29;20035;-69
2021/11/11 10:35:29;;;;;;;21.85;11.80;;;;;;;13.16;100.00;102573.94;4923833;29;20112;-69
2021/11/11 10:38:19;;;;;;;24.80;11.45;;;;;;;13.25;100.00;102571.31;4936061;29;20031;-69
2021/11/11 10:41:04;;;;;;;20.65;11.43;;;;;;;13.35;100.00;102572.19;4936337;29;20055;-69
2021/11/11 10:43:50;;;;;;;22.27;11.25;;;;;;;13.81;100.00;102566.91;4938965;29;20424;-68
2021/11/11 10:47:12;;;;;;;22.40;10.52;;;;;;;14.16;100.00;102562.41;4937086;29;20035;-68
2021/11/11 10:50:01;;;;;;;16.80;9.32;;;;;;;14.70;100.00;102551.69;4921889;29;20043;-70
2021/11/11 10:52:53;;;;;;;19.10;11.20;;;;;;;14.39;100.00;102555.34;4925180;29;20046;-69
2021/11/11 10:55:40;;;;;;;14.27;9.13;;;;;;;15.35;100.00;102556.56;4937629;29;20036;-69
2021/11/11 10:58:29;;;;;;;14.45;9.38;;;;;;;15.34;98.18;102548.66;4938614;29;20127;-70
2021/11/11 11:01:19;;;;;;;19.17;9.15;;;;;;;14.37;100.00;102545.69;4938573;29;20027;-69
2021/11/11 11:04:05;;;;;;;17.67;8.80;;;;;;;14.63;100.00;102536.78;4938293;29;20035;-69
2021/11/11 11:06:51;;;;;;;12.13;8.15;;;;;;;13.90;100.00;102537.91;4922984;29;20042;-68
2021/11/11 11:09:39;;;;;;;14.20;8.35;;;;;;;14.88;99.77;102533.09;4923722;29;20061;-69
2021/11/11 11:12:30;;;;;;;10.85;7.95;;;;;;;14.47;100.00;102516.63;4938322;29;20035;-68
2021/11/11 11:15:50;;;;;;;15.23;9.00;;;;;;;14.34;100.00;102514.94;4924421;29;20065;-68
2021/11/11 11:18:58;;;;;;;16.77;9.18;;;;;;;14.98;100.00;102517.25;4913263;29;20050;-70
2021/11/11 11:21:50;;;;;;;19.98;12.05;;;;;;;14.97;99.01;102520.75;4937987;29;20066;-70
2021/11/11 11:24:36;;;;;;;30.73;11.95;;;;;;;14.99;100.00;102514.56;4938826;29;20055;-70
2021/11/11 11:27:31;;;;;;;21.27;10.45;;;;;;;15.19;98.24;102504.72;4939234;29;20363;-69
2021/11/11 11:30:18;;;;;;;32.00;13.45;;;;;;;15.10;98.48;102509.22;4938553;29;20035;-69
2021/11/11 11:33:18;;;;;;;32.53;12.65;;;;;;;15.28;98.16;102511.72;4939740;29;20118;-70
2021/11/11 11:36:08;;;;;;;40.90;14.00;;;;;;;15.49;97.26;102498.34;4925858;29;20450;-70
2021/11/11 11:38:57;;;;;;;33.22;12.07;;;;;;;15.64;96.60;102493.81;4939057;29;20114;-70
2021/11/11 11:42:14;;;;;;;22.00;10.45;;;;;;;15.18;99.06;102500.34;4925089;29;20051;-69
2021/11/11 11:45:05;;;;;;;23.15;9.73;;;;;;;14.65;100.00;102494.56;4926021;29;20028;-69
2021/11/11 11:48:06;;;;;;;19.23;8.07;;;;;;;14.56;100.00;102492.00;4938830;29;20075;-69
2021/11/11 11:50:59;;;;;;;13.32;7.45;;;;;;;14.93;100.00;102482.94;4939001;29;20039;-69
2021/11/11 11:53:53;;;;;;;13.70;6.90;;;;;;;14.39;100.00;102475.38;4939975;29;20058;-70
2021/11/11 11:56:46;;;;;;;12.20;6.72;;;;;;;14.48;100.00;102470.06;4938826;29;20048;-68
2021/11/11 11:59:40;;;;;;;13.73;7.10;;;;;;;15.00;100.00;102475.84;4938809;29;20025;-68
2021/11/11 12:05:25;;;;;;;13.30;5.90;;;;;;;15.40;99.71;102464.09;4939012;29;20191;-68
2021/11/11 12:11:55;;;;;;;13.90;7.90;;;;;;;14.87;100.00;102447.81;4938685;29;20389;-69
2021/11/11 12:17:57;;;;;;;9.45;7.55;;;;;;;14.65;100.00;102434.78;4939646;29;20114;-68
2021/11/11 12:40:08;;;;;;;15.75;8.15;;;;;;;14.82;100.00;102435.53;4937903;29;20030;-69
2021/11/11 12:42:57;;;;;;;10.02;7.47;;;;;;;14.47;100.00;102429.59;4939135;29;20036;-70
2021/11/11 12:45:43;;;;;;;11.23;7.40;;;;;;;14.78;100.00;102428.50;4924306;29;20027;-69
2021/11/11 12:48:30;;;;;;;12.30;7.60;;;;;;;14.72;100.00;102422.41;4925327;29;20062;-70
2021/11/11 12:51:16;;;;;;;9.93;7.35;;;;;;;14.82;100.00;102424.97;4938851;29;20027;-69
2021/11/11 12:54:20;;;;;;;10.32;7.00;;;;;;;14.78;100.00;102410.03;4925643;29;20043;-69
2021/11/11 12:57:07;;;;;;;11.23;6.65;;;;;;;14.64;100.00;102417.16;4937828;29;20065;-70
2021/11/11 12:59:53;;;;;;;8.68;6.70;;;;;;;14.60;100.00;102409.31;4924192;29;20537;-69
2021/11/11 13:02:50;;;;;;;11.52;6.97;;;;;;;14.22;100.00;102409.53;4937458;29;20529;-69
2021/11/11 13:05:57;;;;;;;12.18;6.35;;;;;;;14.33;100.00;102409.47;4937886;29;20126;-69
2021/11/11 13:08:42;;;;;;;13.48;6.88;;;;;;;14.70;100.00;102403.94;4937514;29;20024;-70
2021/11/11 13:11:32;;;;;;;12.82;6.53;;;;;;;14.70;100.00;102401.31;4937011;29;20042;-69
2021/11/11 13:14:25;;;;;;;12.60;6.43;;;;;;;14.83;100.00;102405.59;4937161;29;20122;-69
2021/11/11 13:17:15;;;;;;;10.20;6.28;;;;;;;14.30;100.00;102405.09;4937254;29;20063;-69
2021/11/11 13:20:14;;;;;;;9.77;6.03;;;;;;;14.45;100.00;102399.75;4923345;29;20028;-69
2021/11/11 13:23:16;;;;;;;9.35;5.78;;;;;;;14.02;100.00;102394.66;4938398;29;20035;-69
2021/11/11 13:26:30;;;;;;;12.35;6.22;;;;;;;14.64;100.00;102387.28;4922514;29;20109;-68
2021/11/11 14:00:52;;;;;;;9.68;5.78;;;;;;;14.00;100.00;102365.72;4937553;29;20027;-68
2021/11/11 16:26:33;;;;;;;31.70;18.63;;;;;;;11.92;100.00;102331.72;4940455;29;20034;-68
2021/11/11 16:29:19;;;;;;;36.92;22.95;;;;;;;11.82;100.00;102335.22;4926077;29;20434;-68
2021/11/11 16:32:06;;;;;;;34.97;20.95;;;;;;;11.78;100.00;102341.31;4926079;29;20052;-69
2021/11/11 16:34:52;;;;;;;30.73;19.77;;;;;;;11.89;100.00;102340.47;4925990;29;20036;-69